Uraga Maru — JD2163 — position and weather

sailwx.info

Track history (hours):
 
Tides and Currents Weather Stations Pressure Air Temp Water Temp Dewpoint Dewpoint Depression Visibility Wind Speed Wind Dir Waves Ship Positions

Uraga Maru

Last reported at 2016-Jun-26 13:32 UTC. Time now 2016-Jun-26 13:49 UTC.
Position N 35°17' E 139°41'.

Length 40 m; draft 2.8 m.

Type: Tug. MMSI: 431101119.

Date/timePositionNaut miles runAvg speedWind from/ knotsBaromVisibWave heightAir tempDewpointWater temp
2016-Jun-26 13:32N 35°17' E 139°41'0 0.0
2016-Jun-26 12:32N 35°17' E 139°41'0 0.0
2016-Jun-26 11:33N 35°17' E 139°41'0 0.0
2016-Jun-26 10:33N 35°17' E 139°41'0 0.0
2016-Jun-26 09:32N 35°17' E 139°41'0 0.0
2016-Jun-26 08:33N 35°17' E 139°41'0 0.0
2016-Jun-26 07:33N 35°17' E 139°41'0 0.0
2016-Jun-26 06:33N 35°17' E 139°41'0 0.0
2016-Jun-26 05:33N 35°17' E 139°41'0 0.0
2016-Jun-26 04:33N 35°17' E 139°41'0 0.0
2016-Jun-26 03:33N 35°17' E 139°41'4 4.4
2016-Jun-26 02:33N 35°21' E 139°43'1211.7
2016-Jun-26 01:33N 35°10' E 139°47'5 4.8
2016-Jun-26 00:33N 35°13' E 139°43'0 0.0
2016-Jun-25 23:33N 35°13' E 139°43'0 0.0
2016-Jun-25 22:33N 35°13' E 139°43'8 8.0
2016-Jun-25 21:33N 35°21' E 139°42'7 6.6
2016-Jun-25 20:34N 35°28' E 139°42'6 6.3
2016-Jun-25 19:33N 35°22' E 139°45'1212.2
2016-Jun-25 18:33N 35°10' E 139°47'3 0.9
2016-Jun-25 15:33N 35°12' E 139°46'1110.7
2016-Jun-25 14:33N 35°23' E 139°43'6 5.8
2016-Jun-25 13:33N 35°17' E 139°41'1 0.3
2016-Jun-25 11:22N 35°17' E 139°41'0 0.0
2016-Jun-25 08:19N 35°17' E 139°41'0 0.0
2016-Jun-25 07:18N 35°17' E 139°41'0 0.0
2016-Jun-25 06:33N 35°17' E 139°41'0 0.0
2016-Jun-25 05:27N 35°17' E 139°41'0 0.0
2016-Jun-25 04:17N 35°17' E 139°41'0 0.0
2016-Jun-25 02:13N 35°17' E 139°41'0 0.0
2016-Jun-25 01:29N 35°17' E 139°41'0 0.0
2016-Jun-25 00:17N 35°17' E 139°41'0 0.0
2016-Jun-24 23:33N 35°17' E 139°41'0 0.0
2016-Jun-24 22:31N 35°17' E 139°41'0 0.0
2016-Jun-24 21:28N 35°17' E 139°41'0 0.0
2016-Jun-24 19:30N 35°17' E 139°41'0 0.0
2016-Jun-24 17:30N 35°17' E 139°41'0 0.0
2016-Jun-24 16:25N 35°17' E 139°41'0 0.0
2016-Jun-24 15:31N 35°17' E 139°41'0 0.0
2016-Jun-24 14:33N 35°17' E 139°41'0 0.0
2016-Jun-24 13:33N 35°17' E 139°41'0 0.0
2016-Jun-24 12:33N 35°17' E 139°41'0 0.0
2016-Jun-24 11:33N 35°17' E 139°41'0 0.0
2016-Jun-24 10:27N 35°17' E 139°41'0 0.0
2016-Jun-24 07:06N 35°17' E 139°41'0 0.0
2016-Jun-23 23:17N 35°17' E 139°41'2 2.9
2016-Jun-23 22:33N 35°19' E 139°39'2 2.1
2016-Jun-23 21:33N 35°19' E 139°42'1 1.1
2016-Jun-23 20:33N 35°19' E 139°40'7 6.6
2016-Jun-23 19:33N 35°25' E 139°43'9 8.7
2016-Jun-23 18:33N 35°17' E 139°45'7 6.6
2016-Jun-23 17:33N 35°10' E 139°47'8 8.2
2016-Jun-23 16:33N 35°17' E 139°41'0 0.2
2016-Jun-23 15:33N 35°17' E 139°41'0 0.0
2016-Jun-23 14:33N 35°17' E 139°41'0 0.0
2016-Jun-23 13:33N 35°17' E 139°41'0 0.0
2016-Jun-23 12:33N 35°17' E 139°41'0 0.0
2016-Jun-23 11:23N 35°17' E 139°41'0 0.0
2016-Jun-23 10:33N 35°17' E 139°41'0 0.0
2016-Jun-23 09:28N 35°17' E 139°41'0 0.0
2016-Jun-23 08:33N 35°17' E 139°41'0 0.0
2016-Jun-23 07:24N 35°17' E 139°41'0 0.0
2016-Jun-23 01:33N 35°17' E 139°41'0 0.0
2016-Jun-23 00:32N 35°17' E 139°41'0 0.0
2016-Jun-22 23:33N 35°17' E 139°41'0 0.0
2016-Jun-22 22:33N 35°17' E 139°41'0 0.0
2016-Jun-22 21:33N 35°17' E 139°41'0 0.0
2016-Jun-22 20:33N 35°17' E 139°41'0 0.0
2016-Jun-22 19:33N 35°17' E 139°41'0 0.0
2016-Jun-22 18:33N 35°17' E 139°41'0 0.0
2016-Jun-22 17:33N 35°17' E 139°41'0 0.0
2016-Jun-22 16:33N 35°17' E 139°41'0 0.0
2016-Jun-22 15:32N 35°17' E 139°41'0 0.0
2016-Jun-22 14:33N 35°17' E 139°41'0 0.0
2016-Jun-22 13:33N 35°17' E 139°41'0 0.0
2016-Jun-22 12:26N 35°17' E 139°41'0 0.0
2016-Jun-22 11:33N 35°17' E 139°41'0 0.0
2016-Jun-22 10:24N 35°17' E 139°41'0 0.0
2016-Jun-22 09:30N 35°17' E 139°41'0 0.0
2016-Jun-22 08:33N 35°17' E 139°41'0 0.0
2016-Jun-22 07:33N 35°17' E 139°41'0 0.0
2016-Jun-22 06:33N 35°17' E 139°41'0 0.0
2016-Jun-22 05:33N 35°17' E 139°41'0 0.0
2016-Jun-22 04:31N 35°17' E 139°41'0 0.0
2016-Jun-22 03:32N 35°17' E 139°41'0 0.0
2016-Jun-22 02:33N 35°17' E 139°41'0 0.0
2016-Jun-22 01:33N 35°17' E 139°41'0 0.0
2016-Jun-22 00:33N 35°17' E 139°41'7 6.9
2016-Jun-21 23:33N 35°24' E 139°42'3 3.3
2016-Jun-21 22:33N 35°21' E 139°45'10 9.9
2016-Jun-21 21:33N 35°12' E 139°47'1 1.3
2016-Jun-21 20:33N 35°10' E 139°47'9 9.2
2016-Jun-21 19:33N 35°19' E 139°43'6 6.2
2016-Jun-21 18:33N 35°25' E 139°42'8 7.4
2016-Jun-21 17:28N 35°17' E 139°41'0 0.0
2016-Jun-21 16:28N 35°17' E 139°41'0 0.0
2016-Jun-21 15:33N 35°17' E 139°41'0 0.0
2016-Jun-21 14:33N 35°17' E 139°41'0 0.0
2016-Jun-21 13:33N 35°17' E 139°41'0 0.0
2016-Jun-21 12:33N 35°17' E 139°41'0 0.0
2016-Jun-21 11:16N 35°17' E 139°41'1 1.1
2016-Jun-21 10:33N 35°17' E 139°41'6 6.2
2016-Jun-21 09:33N 35°23' E 139°39'0 0.2
2016-Jun-21 08:33N 35°23' E 139°40'1 0.7
2016-Jun-21 07:33N 35°24' E 139°39'1 0.7
2016-Jun-21 05:33N 35°23' E 139°40'0 0.0
2016-Jun-21 04:33N 35°23' E 139°40'0 0.0
2016-Jun-21 03:33N 35°23' E 139°40'1 1.3
2016-Jun-21 02:33N 35°24' E 139°40'5 5.0
2016-Jun-21 01:33N 35°19' E 139°41'2 1.9
2016-Jun-21 00:30N 35°17' E 139°41'0 0.0
2016-Jun-20 23:28N 35°17' E 139°41'0 0.0
2016-Jun-20 22:33N 35°17' E 139°41'0 0.0
2016-Jun-20 21:33N 35°17' E 139°41'0 0.0
2016-Jun-20 20:33N 35°17' E 139°41'0 0.0
2016-Jun-20 19:33N 35°17' E 139°41'0 0.0
2016-Jun-20 18:28N 35°17' E 139°41'0 0.0
2016-Jun-20 17:33N 35°17' E 139°41'0 0.0
2016-Jun-20 16:33N 35°17' E 139°41'0 0.0
2016-Jun-20 15:26N 35°17' E 139°41'0 0.0
2016-Jun-20 14:32N 35°17' E 139°41'0 0.0
2016-Jun-20 13:33N 35°17' E 139°41'0 0.0
2016-Jun-20 12:25N 35°17' E 139°41'0 0.0
2016-Jun-20 11:33N 35°17' E 139°41'0 0.0
2016-Jun-20 10:32N 35°17' E 139°41'0 0.0
2016-Jun-20 09:33N 35°17' E 139°41'0 0.0
2016-Jun-20 08:33N 35°17' E 139°41'0 0.0
2016-Jun-20 07:33N 35°17' E 139°41'0 0.0
2016-Jun-20 06:33N 35°17' E 139°41'0 0.0
2016-Jun-20 05:33N 35°17' E 139°41'0 0.0
2016-Jun-20 04:33N 35°17' E 139°41'5 5.4
2016-Jun-20 03:33N 35°14' E 139°46'1110.9
2016-Jun-20 02:33N 35°25' E 139°44'1111.2
2016-Jun-20 01:34N 35°31' E 139°56'1 0.8
2016-Jun-20 00:33N 35°31' E 139°57'3 2.8
2016-Jun-19 23:34N 35°28' E 139°56'0 0.0
2016-Jun-19 22:34N 35°28' E 139°56'10 9.6
2016-Jun-19 21:34N 35°23' E 139°46'1211.5
2016-Jun-19 20:34N 35°11' E 139°47'5 4.7
2016-Jun-19 19:33N 35°16' E 139°45'2 0.1
2016-Jun-19 05:34N 35°14' E 139°46'9 8.6
2016-Jun-19 04:34N 35°22' E 139°41'1 1.3
2016-Jun-19 03:34N 35°23' E 139°40'0 0.2
2016-Jun-19 02:33N 35°23' E 139°40'2 2.3
2016-Jun-19 01:33N 35°25' E 139°43'7 6.9
2016-Jun-19 00:33N 35°20' E 139°49'2 2.2
2016-Jun-18 23:34N 35°22' E 139°48'8 7.6
2016-Jun-18 22:33N 35°17' E 139°41'0 0.0
2016-Jun-18 21:34N 35°17' E 139°41'0 0.0
2016-Jun-18 20:33N 35°17' E 139°41'0 0.0
2016-Jun-18 19:33N 35°17' E 139°41'0 0.0
2016-Jun-18 18:33N 35°17' E 139°41'0 0.0
2016-Jun-18 17:33N 35°17' E 139°41'0 0.0
2016-Jun-18 16:33N 35°17' E 139°41'0 0.0
2016-Jun-18 15:32N 35°17' E 139°41'0 0.0
2016-Jun-18 14:31N 35°17' E 139°41'0 0.0
2016-Jun-18 13:33N 35°17' E 139°41'0 0.0
2016-Jun-18 12:32N 35°17' E 139°41'0 0.0
2016-Jun-18 11:33N 35°17' E 139°41'0 0.0
2016-Jun-18 10:33N 35°17' E 139°41'0 0.0
2016-Jun-18 09:33N 35°17' E 139°41'0 0.0
2016-Jun-18 08:33N 35°17' E 139°41'0 0.0
2016-Jun-18 07:33N 35°17' E 139°41'0 0.0
2016-Jun-18 06:14N 35°17' E 139°41'0 0.1
2016-Jun-18 05:33N 35°17' E 139°41'0 0.0
2016-Jun-18 04:23N 35°17' E 139°41'0 0.0
2016-Jun-18 03:29N 35°17' E 139°41'0 0.0
2016-Jun-18 00:23N 35°17' E 139°41'0 0.1
2016-Jun-17 23:33N 35°17' E 139°41'0 0.0
2016-Jun-17 22:33N 35°17' E 139°41'8 8.2
2016-Jun-17 21:33N 35°24' E 139°46'10 9.5
2016-Jun-17 20:33N 35°15' E 139°47'3 3.2
2016-Jun-17 19:33N 35°11' E 139°46'7 7.4
2016-Jun-17 18:34N 35°17' E 139°41'0 0.0
2016-Jun-17 17:33N 35°17' E 139°41'0 0.0
2016-Jun-17 16:33N 35°17' E 139°41'0 0.0
2016-Jun-17 15:33N 35°17' E 139°41'0 0.0
2016-Jun-17 14:33N 35°17' E 139°41'0 0.0
2016-Jun-17 13:33N 35°17' E 139°41'0 0.0
2016-Jun-17 12:33N 35°17' E 139°41'0 0.0
2016-Jun-17 11:30N 35°17' E 139°41'0 0.3
2016-Jun-17 10:33N 35°17' E 139°41'2 2.1
2016-Jun-17 09:33N 35°19' E 139°39'1 1.0
2016-Jun-17 08:33N 35°19' E 139°40'0 0.0
2016-Jun-17 07:27N 35°19' E 139°40'7 8.4
2016-Jun-17 06:33N 35°24' E 139°48'1010.1
2016-Jun-17 05:33N 35°30' E 139°57'7 7.1
2016-Jun-17 04:33N 35°33' E 140°05'4 3.9
2016-Jun-17 03:33N 35°33' E 140°01'5 4.8
2016-Jun-17 02:33N 35°30' E 139°56'1211.8
2016-Jun-17 01:33N 35°22' E 139°46'6 6.5
2016-Jun-17 00:33N 35°17' E 139°41'0 0.0
2016-Jun-16 23:22N 35°17' E 139°41'0 0.1
2016-Jun-16 22:31N 35°17' E 139°41'0 0.0
2016-Jun-16 21:33N 35°17' E 139°41'0 0.0
2016-Jun-16 20:33N 35°17' E 139°41'0 0.0
2016-Jun-16 19:29N 35°17' E 139°41'0 0.0
2016-Jun-16 18:32N 35°17' E 139°41'0 0.0
2016-Jun-16 17:33N 35°17' E 139°41'0 0.0
2016-Jun-16 16:33N 35°17' E 139°41'0 0.0
2016-Jun-16 15:33N 35°17' E 139°41'0 0.0
2016-Jun-16 14:32N 35°17' E 139°41'  
Track history (hours):
 
Tides and Currents Weather Stations Pressure Air Temp Water Temp Dewpoint Dewpoint Depression Visibility Wind Speed Wind Dir Waves Ship Positions

Uraga Maru

Last reported at 2016-Jun-26 13:32 UTC. Time now 2016-Jun-26 13:49 UTC.
Position N 35°17' E 139°41'.

Length 40 m; draft 2.8 m.

Type: Tug. MMSI: 431101119.

Date/timePositionNaut miles runAvg speedWind from/ knotsBaromVisibWave heightAir tempDewpointWater temp
2016-Jun-26 13:32N 35°17' E 139°41'0 0.0
2016-Jun-26 12:32N 35°17' E 139°41'0 0.0
2016-Jun-26 11:33N 35°17' E 139°41'0 0.0
2016-Jun-26 10:33N 35°17' E 139°41'0 0.0
2016-Jun-26 09:32N 35°17' E 139°41'0 0.0
2016-Jun-26 08:33N 35°17' E 139°41'0 0.0
2016-Jun-26 07:33N 35°17' E 139°41'0 0.0
2016-Jun-26 06:33N 35°17' E 139°41'0 0.0
2016-Jun-26 05:33N 35°17' E 139°41'0 0.0
2016-Jun-26 04:33N 35°17' E 139°41'0 0.0
2016-Jun-26 03:33N 35°17' E 139°41'4 4.4
2016-Jun-26 02:33N 35°21' E 139°43'1211.7
2016-Jun-26 01:33N 35°10' E 139°47'5 4.8
2016-Jun-26 00:33N 35°13' E 139°43'0 0.0
2016-Jun-25 23:33N 35°13' E 139°43'0 0.0
2016-Jun-25 22:33N 35°13' E 139°43'8 8.0
2016-Jun-25 21:33N 35°21' E 139°42'7 6.6
2016-Jun-25 20:34N 35°28' E 139°42'6 6.3
2016-Jun-25 19:33N 35°22' E 139°45'1212.2
2016-Jun-25 18:33N 35°10' E 139°47'3 0.9
2016-Jun-25 15:33N 35°12' E 139°46'1110.7
2016-Jun-25 14:33N 35°23' E 139°43'6 5.8
2016-Jun-25 13:33N 35°17' E 139°41'1 0.3
2016-Jun-25 11:22N 35°17' E 139°41'0 0.0
2016-Jun-25 08:19N 35°17' E 139°41'0 0.0
2016-Jun-25 07:18N 35°17' E 139°41'0 0.0
2016-Jun-25 06:33N 35°17' E 139°41'0 0.0
2016-Jun-25 05:27N 35°17' E 139°41'0 0.0
2016-Jun-25 04:17N 35°17' E 139°41'0 0.0
2016-Jun-25 02:13N 35°17' E 139°41'0 0.0
2016-Jun-25 01:29N 35°17' E 139°41'0 0.0
2016-Jun-25 00:17N 35°17' E 139°41'0 0.0
2016-Jun-24 23:33N 35°17' E 139°41'0 0.0
2016-Jun-24 22:31N 35°17' E 139°41'0 0.0
2016-Jun-24 21:28N 35°17' E 139°41'0 0.0
2016-Jun-24 19:30N 35°17' E 139°41'0 0.0
2016-Jun-24 17:30N 35°17' E 139°41'0 0.0
2016-Jun-24 16:25N 35°17' E 139°41'0 0.0
2016-Jun-24 15:31N 35°17' E 139°41'0 0.0
2016-Jun-24 14:33N 35°17' E 139°41'0 0.0
2016-Jun-24 13:33N 35°17' E 139°41'0 0.0
2016-Jun-24 12:33N 35°17' E 139°41'0 0.0
2016-Jun-24 11:33N 35°17' E 139°41'0 0.0
2016-Jun-24 10:27N 35°17' E 139°41'0 0.0
2016-Jun-24 07:06N 35°17' E 139°41'0 0.0
2016-Jun-23 23:17N 35°17' E 139°41'2 2.9
2016-Jun-23 22:33N 35°19' E 139°39'2 2.1
2016-Jun-23 21:33N 35°19' E 139°42'1 1.1
2016-Jun-23 20:33N 35°19' E 139°40'7 6.6
2016-Jun-23 19:33N 35°25' E 139°43'9 8.7
2016-Jun-23 18:33N 35°17' E 139°45'7 6.6
2016-Jun-23 17:33N 35°10' E 139°47'8 8.2
2016-Jun-23 16:33N 35°17' E 139°41'0 0.2
2016-Jun-23 15:33N 35°17' E 139°41'0 0.0
2016-Jun-23 14:33N 35°17' E 139°41'0 0.0
2016-Jun-23 13:33N 35°17' E 139°41'0 0.0
2016-Jun-23 12:33N 35°17' E 139°41'0 0.0
2016-Jun-23 11:23N 35°17' E 139°41'0 0.0
2016-Jun-23 10:33N 35°17' E 139°41'0 0.0
2016-Jun-23 09:28N 35°17' E 139°41'0 0.0
2016-Jun-23 08:33N 35°17' E 139°41'0 0.0
2016-Jun-23 07:24N 35°17' E 139°41'0 0.0
2016-Jun-23 01:33N 35°17' E 139°41'0 0.0
2016-Jun-23 00:32N 35°17' E 139°41'0 0.0
2016-Jun-22 23:33N 35°17' E 139°41'0 0.0
2016-Jun-22 22:33N 35°17' E 139°41'0 0.0
2016-Jun-22 21:33N 35°17' E 139°41'0 0.0
2016-Jun-22 20:33N 35°17' E 139°41'0 0.0
2016-Jun-22 19:33N 35°17' E 139°41'0 0.0
2016-Jun-22 18:33N 35°17' E 139°41'0 0.0
2016-Jun-22 17:33N 35°17' E 139°41'0 0.0
2016-Jun-22 16:33N 35°17' E 139°41'0 0.0
2016-Jun-22 15:32N 35°17' E 139°41'0 0.0
2016-Jun-22 14:33N 35°17' E 139°41'0 0.0
2016-Jun-22 13:33N 35°17' E 139°41'0 0.0
2016-Jun-22 12:26N 35°17' E 139°41'0 0.0
2016-Jun-22 11:33N 35°17' E 139°41'0 0.0
2016-Jun-22 10:24N 35°17' E 139°41'0 0.0
2016-Jun-22 09:30N 35°17' E 139°41'0 0.0
2016-Jun-22 08:33N 35°17' E 139°41'0 0.0
2016-Jun-22 07:33N 35°17' E 139°41'0 0.0
2016-Jun-22 06:33N 35°17' E 139°41'0 0.0
2016-Jun-22 05:33N 35°17' E 139°41'0 0.0
2016-Jun-22 04:31N 35°17' E 139°41'0 0.0
2016-Jun-22 03:32N 35°17' E 139°41'0 0.0
2016-Jun-22 02:33N 35°17' E 139°41'0 0.0
2016-Jun-22 01:33N 35°17' E 139°41'0 0.0
2016-Jun-22 00:33N 35°17' E 139°41'7 6.9
2016-Jun-21 23:33N 35°24' E 139°42'3 3.3
2016-Jun-21 22:33N 35°21' E 139°45'10 9.9
2016-Jun-21 21:33N 35°12' E 139°47'1 1.3
2016-Jun-21 20:33N 35°10' E 139°47'9 9.2
2016-Jun-21 19:33N 35°19' E 139°43'6 6.2
2016-Jun-21 18:33N 35°25' E 139°42'8 7.4
2016-Jun-21 17:28N 35°17' E 139°41'0 0.0
2016-Jun-21 16:28N 35°17' E 139°41'0 0.0
2016-Jun-21 15:33N 35°17' E 139°41'0 0.0
2016-Jun-21 14:33N 35°17' E 139°41'0 0.0
2016-Jun-21 13:33N 35°17' E 139°41'0 0.0
2016-Jun-21 12:33N 35°17' E 139°41'0 0.0
2016-Jun-21 11:16N 35°17' E 139°41'1 1.1
2016-Jun-21 10:33N 35°17' E 139°41'6 6.2
2016-Jun-21 09:33N 35°23' E 139°39'0 0.2
2016-Jun-21 08:33N 35°23' E 139°40'1 0.7
2016-Jun-21 07:33N 35°24' E 139°39'1 0.7
2016-Jun-21 05:33N 35°23' E 139°40'0 0.0
2016-Jun-21 04:33N 35°23' E 139°40'0 0.0
2016-Jun-21 03:33N 35°23' E 139°40'1 1.3
2016-Jun-21 02:33N 35°24' E 139°40'5 5.0
2016-Jun-21 01:33N 35°19' E 139°41'2 1.9
2016-Jun-21 00:30N 35°17' E 139°41'0 0.0
2016-Jun-20 23:28N 35°17' E 139°41'0 0.0
2016-Jun-20 22:33N 35°17' E 139°41'0 0.0
2016-Jun-20 21:33N 35°17' E 139°41'0 0.0
2016-Jun-20 20:33N 35°17' E 139°41'0 0.0
2016-Jun-20 19:33N 35°17' E 139°41'0 0.0
2016-Jun-20 18:28N 35°17' E 139°41'0 0.0
2016-Jun-20 17:33N 35°17' E 139°41'0 0.0
2016-Jun-20 16:33N 35°17' E 139°41'0 0.0
2016-Jun-20 15:26N 35°17' E 139°41'0 0.0
2016-Jun-20 14:32N 35°17' E 139°41'0 0.0
2016-Jun-20 13:33N 35°17' E 139°41'0 0.0
2016-Jun-20 12:25N 35°17' E 139°41'0 0.0
2016-Jun-20 11:33N 35°17' E 139°41'0 0.0
2016-Jun-20 10:32N 35°17' E 139°41'0 0.0
2016-Jun-20 09:33N 35°17' E 139°41'0 0.0
2016-Jun-20 08:33N 35°17' E 139°41'0 0.0
2016-Jun-20 07:33N 35°17' E 139°41'0 0.0
2016-Jun-20 06:33N 35°17' E 139°41'0 0.0
2016-Jun-20 05:33N 35°17' E 139°41'0 0.0
2016-Jun-20 04:33N 35°17' E 139°41'5 5.4
2016-Jun-20 03:33N 35°14' E 139°46'1110.9
2016-Jun-20 02:33N 35°25' E 139°44'1111.2
2016-Jun-20 01:34N 35°31' E 139°56'1 0.8
2016-Jun-20 00:33N 35°31' E 139°57'3 2.8
2016-Jun-19 23:34N 35°28' E 139°56'0 0.0
2016-Jun-19 22:34N 35°28' E 139°56'10 9.6
2016-Jun-19 21:34N 35°23' E 139°46'1211.5
2016-Jun-19 20:34N 35°11' E 139°47'5 4.7
2016-Jun-19 19:33N 35°16' E 139°45'2 0.1
2016-Jun-19 05:34N 35°14' E 139°46'9 8.6
2016-Jun-19 04:34N 35°22' E 139°41'1 1.3
2016-Jun-19 03:34N 35°23' E 139°40'0 0.2
2016-Jun-19 02:33N 35°23' E 139°40'2 2.3
2016-Jun-19 01:33N 35°25' E 139°43'7 6.9
2016-Jun-19 00:33N 35°20' E 139°49'2 2.2
2016-Jun-18 23:34N 35°22' E 139°48'8 7.6
2016-Jun-18 22:33N 35°17' E 139°41'0 0.0
2016-Jun-18 21:34N 35°17' E 139°41'0 0.0
2016-Jun-18 20:33N 35°17' E 139°41'0 0.0
2016-Jun-18 19:33N 35°17' E 139°41'0 0.0
2016-Jun-18 18:33N 35°17' E 139°41'0 0.0
2016-Jun-18 17:33N 35°17' E 139°41'0 0.0
2016-Jun-18 16:33N 35°17' E 139°41'0 0.0
2016-Jun-18 15:32N 35°17' E 139°41'0 0.0
2016-Jun-18 14:31N 35°17' E 139°41'0 0.0
2016-Jun-18 13:33N 35°17' E 139°41'0 0.0
2016-Jun-18 12:32N 35°17' E 139°41'0 0.0
2016-Jun-18 11:33N 35°17' E 139°41'0 0.0
2016-Jun-18 10:33N 35°17' E 139°41'0 0.0
2016-Jun-18 09:33N 35°17' E 139°41'0 0.0
2016-Jun-18 08:33N 35°17' E 139°41'0 0.0
2016-Jun-18 07:33N 35°17' E 139°41'0 0.0
2016-Jun-18 06:14N 35°17' E 139°41'0 0.1
2016-Jun-18 05:33N 35°17' E 139°41'0 0.0
2016-Jun-18 04:23N 35°17' E 139°41'0 0.0
2016-Jun-18 03:29N 35°17' E 139°41'0 0.0
2016-Jun-18 00:23N 35°17' E 139°41'0 0.1
2016-Jun-17 23:33N 35°17' E 139°41'0 0.0
2016-Jun-17 22:33N 35°17' E 139°41'8 8.2
2016-Jun-17 21:33N 35°24' E 139°46'10 9.5
2016-Jun-17 20:33N 35°15' E 139°47'3 3.2
2016-Jun-17 19:33N 35°11' E 139°46'7 7.4
2016-Jun-17 18:34N 35°17' E 139°41'0 0.0
2016-Jun-17 17:33N 35°17' E 139°41'0 0.0
2016-Jun-17 16:33N 35°17' E 139°41'0 0.0
2016-Jun-17 15:33N 35°17' E 139°41'0 0.0
2016-Jun-17 14:33N 35°17' E 139°41'0 0.0
2016-Jun-17 13:33N 35°17' E 139°41'0 0.0
2016-Jun-17 12:33N 35°17' E 139°41'0 0.0
2016-Jun-17 11:30N 35°17' E 139°41'0 0.3
2016-Jun-17 10:33N 35°17' E 139°41'2 2.1
2016-Jun-17 09:33N 35°19' E 139°39'1 1.0
2016-Jun-17 08:33N 35°19' E 139°40'0 0.0
2016-Jun-17 07:27N 35°19' E 139°40'7 8.4
2016-Jun-17 06:33N 35°24' E 139°48'1010.1
2016-Jun-17 05:33N 35°30' E 139°57'7 7.1
2016-Jun-17 04:33N 35°33' E 140°05'4 3.9
2016-Jun-17 03:33N 35°33' E 140°01'5 4.8
2016-Jun-17 02:33N 35°30' E 139°56'1211.8
2016-Jun-17 01:33N 35°22' E 139°46'6 6.5
2016-Jun-17 00:33N 35°17' E 139°41'0 0.0
2016-Jun-16 23:22N 35°17' E 139°41'0 0.1
2016-Jun-16 22:31N 35°17' E 139°41'0 0.0
2016-Jun-16 21:33N 35°17' E 139°41'0 0.0
2016-Jun-16 20:33N 35°17' E 139°41'0 0.0
2016-Jun-16 19:29N 35°17' E 139°41'0 0.0
2016-Jun-16 18:32N 35°17' E 139°41'0 0.0
2016-Jun-16 17:33N 35°17' E 139°41'0 0.0
2016-Jun-16 16:33N 35°17' E 139°41'0 0.0
2016-Jun-16 15:33N 35°17' E 139°41'0 0.0
2016-Jun-16 14:32N 35°17' E 139°41'  

Dump ship's entire track history